createdAt,value
2023-06-16T00:00:51.947Z,78.86
2023-06-16T00:01:52.062Z,79.27
2023-06-16T00:02:51.977Z,79.68
2023-06-16T00:03:51.946Z,79.47
2023-06-16T00:04:51.930Z,79.02
2023-06-16T00:05:51.901Z,79.23
2023-06-16T00:06:51.878Z,79.02
2023-06-16T00:07:51.862Z,80.08
2023-06-16T00:08:51.845Z,79.88
2023-06-16T00:09:51.878Z,79.47
2023-06-16T00:10:51.830Z,80.08
2023-06-16T00:11:51.841Z,80.42
2023-06-16T00:12:51.835Z,81.44
2023-06-16T00:13:51.807Z,79.71
2023-06-16T00:14:51.795Z,79.98
2023-06-16T00:15:51.784Z,79.57
2023-06-16T00:16:51.779Z,79.77
2023-06-16T00:17:51.801Z,78.82
2023-06-16T00:18:51.761Z,78.52
2023-06-16T00:19:51.750Z,77.77
2023-06-16T00:20:51.717Z,76.65
2023-06-16T00:21:51.762Z,77.06
2023-06-16T00:22:51.737Z,78.62
2023-06-16T00:23:51.717Z,79.77
2023-06-16T00:24:51.684Z,79.47
2023-06-16T00:25:51.679Z,78.96
2023-06-16T00:26:51.670Z,80.29
2023-06-16T00:27:51.713Z,80.42
2023-06-16T00:28:51.632Z,80.32
2023-06-16T00:29:51.655Z,79.81
2023-06-16T00:30:51.632Z,79.68
2023-06-16T00:31:51.607Z,79.37
2023-06-16T00:32:51.630Z,80.32
2023-06-16T00:33:51.585Z,81.24
2023-06-16T00:34:51.563Z,80.87
2023-06-16T00:35:51.571Z,82.29
2023-06-16T00:36:51.608Z,82.29
2023-06-16T00:37:51.552Z,82.94
2023-06-16T00:38:51.605Z,83.70
2023-06-16T00:39:51.534Z,83.29
2023-06-16T00:40:51.515Z,83.29
2023-06-16T00:41:51.510Z,83.18
2023-06-16T00:42:51.481Z,83.73
2023-06-16T00:43:51.485Z,84.66
2023-06-16T00:44:51.489Z,84.34
2023-06-16T00:45:51.496Z,83.70
2023-06-16T00:46:51.540Z,84.41
2023-06-16T00:47:51.502Z,84.55
2023-06-16T00:48:51.462Z,84.66
2023-06-16T00:49:51.402Z,84.55
2023-06-16T00:50:51.384Z,84.75
2023-06-16T00:51:51.374Z,84.34
2023-06-16T00:52:51.431Z,84.34
2023-06-16T00:53:51.414Z,84.66
2023-06-16T00:54:51.348Z,84.66
2023-06-16T00:55:51.392Z,85.51
2023-06-16T00:56:51.324Z,85.82
2023-06-16T00:57:51.348Z,85.51
2023-06-16T00:58:51.341Z,85.21
2023-06-16T00:59:51.293Z,85.61
2023-06-16T01:00:51.316Z,85.61
2023-06-16T01:01:51.314Z,85.61
2023-06-16T01:02:51.545Z,85.71
2023-06-16T01:03:51.256Z,85.75
2023-06-16T01:04:51.240Z,85.71
2023-06-16T01:05:51.254Z,85.71
2023-06-16T01:06:51.231Z,85.30
2023-06-16T01:07:51.223Z,85.51
2023-06-16T01:08:51.188Z,85.86
2023-06-16T01:09:51.191Z,86.57
2023-06-16T01:10:51.173Z,86.88
2023-06-16T01:11:51.182Z,86.47
2023-06-16T01:12:51.179Z,85.96
2023-06-16T01:13:51.147Z,86.16
2023-06-16T01:14:51.129Z,86.06
2023-06-16T01:15:51.134Z,86.51
2023-06-16T01:16:51.115Z,86.57
2023-06-16T01:17:51.156Z,86.57
2023-06-16T01:18:51.152Z,86.36
2023-06-16T01:19:51.097Z,86.82
2023-06-16T01:20:51.055Z,86.51
2023-06-16T01:21:51.059Z,87.02
2023-06-16T01:22:51.090Z,86.91
2023-06-16T01:23:51.074Z,87.12
2023-06-16T01:24:51.056Z,87.02
2023-06-16T01:25:51.018Z,86.57
2023-06-16T01:26:51.001Z,86.57
2023-06-16T01:27:50.979Z,86.67
2023-06-16T01:28:50.978Z,86.57
2023-06-16T01:29:50.989Z,86.57
2023-06-16T01:30:50.969Z,86.67
2023-06-16T01:31:50.942Z,86.57
2023-06-16T01:32:50.999Z,86.67
2023-06-16T01:33:50.911Z,86.16
2023-06-16T01:34:50.911Z,86.36
2023-06-16T01:35:50.914Z,86.36
2023-06-16T01:36:50.918Z,86.36
2023-06-16T01:37:50.869Z,86.16
2023-06-16T01:38:50.871Z,86.36
2023-06-16T01:39:50.852Z,87.02
2023-06-16T01:40:50.854Z,87.32
2023-06-16T01:41:50.842Z,87.23
2023-06-16T01:42:50.979Z,87.02
2023-06-16T01:43:50.813Z,87.37
2023-06-16T01:44:50.842Z,87.77
2023-06-16T01:45:50.822Z,88.84
2023-06-16T01:46:50.852Z,88.90
2023-06-16T01:47:50.820Z,88.55
2023-06-16T01:48:50.771Z,88.04
2023-06-16T01:49:50.750Z,87.84
2023-06-16T01:50:50.745Z,87.43
2023-06-16T01:51:50.733Z,86.88
2023-06-16T01:52:50.714Z,86.26
2023-06-16T01:53:50.711Z,85.86
2023-06-16T01:54:50.737Z,85.86
2023-06-16T01:55:50.682Z,84.69
2023-06-16T01:56:50.659Z,85.61
2023-06-16T01:57:50.711Z,85.41
2023-06-16T01:58:50.665Z,86.02
2023-06-16T01:59:50.646Z,86.43
2023-06-16T02:00:50.637Z,86.22
2023-06-16T02:01:50.619Z,85.92
2023-06-16T02:02:50.749Z,85.82
2023-06-16T02:03:50.806Z,85.16
2023-06-16T02:04:50.574Z,84.59
2023-06-16T02:05:50.590Z,84.90
2023-06-16T02:06:50.611Z,84.28
2023-06-16T02:07:50.569Z,84.69
2023-06-16T02:08:50.521Z,84.90
2023-06-16T02:09:50.540Z,85.24
2023-06-16T02:10:50.510Z,86.06
2023-06-16T02:11:50.515Z,86.16
2023-06-16T02:12:50.504Z,86.36
2023-06-16T02:13:50.472Z,86.71
2023-06-16T02:14:50.450Z,86.91
2023-06-16T02:15:50.542Z,86.82
2023-06-16T02:16:50.475Z,86.82
2023-06-16T02:17:50.460Z,86.82
2023-06-16T02:18:50.519Z,86.47
2023-06-16T02:19:50.428Z,86.61
2023-06-16T02:20:50.401Z,86.61
2023-06-16T02:21:50.408Z,86.91
2023-06-16T02:22:50.380Z,87.02
2023-06-16T02:23:50.394Z,86.51
2023-06-16T02:24:50.369Z,87.23
2023-06-16T02:25:50.332Z,87.53
2023-06-16T02:26:50.327Z,87.53
2023-06-16T02:27:50.337Z,87.57
2023-06-16T02:28:50.309Z,87.12
2023-06-16T02:29:50.309Z,86.82
2023-06-16T02:30:50.327Z,86.36
2023-06-16T02:31:50.392Z,86.47
2023-06-16T02:33:01.515Z,86.16
2023-06-16T02:33:50.320Z,85.65
2023-06-16T02:34:50.239Z,85.86
2023-06-16T02:35:50.201Z,85.89
2023-06-16T02:36:50.170Z,86.51
2023-06-16T02:37:50.214Z,86.91
2023-06-16T02:38:50.202Z,86.71
2023-06-16T02:39:50.180Z,86.91
2023-06-16T02:40:50.193Z,86.91
2023-06-16T02:41:50.251Z,86.61
2023-06-16T02:42:50.143Z,86.61
2023-06-16T02:43:50.142Z,87.26
2023-06-16T02:44:50.116Z,87.57
2023-06-16T02:45:50.085Z,86.96
2023-06-16T02:46:50.157Z,87.67
2023-06-16T02:47:50.101Z,88.08
2023-06-16T02:48:50.049Z,88.39
2023-06-16T02:49:50.057Z,88.45
2023-06-16T02:50:49.999Z,87.94
2023-06-16T02:51:49.990Z,87.02
2023-06-16T02:52:50.049Z,87.12
2023-06-16T02:53:49.979Z,87.57
2023-06-16T02:54:50.014Z,87.88
2023-06-16T02:55:49.962Z,88.29
2023-06-16T02:56:49.947Z,87.43
2023-06-16T02:57:49.969Z,87.98
2023-06-16T02:58:49.968Z,88.59
2023-06-16T02:59:49.963Z,88.59
2023-06-16T03:00:49.916Z,87.84
2023-06-16T03:01:49.876Z,87.63
2023-06-16T03:02:50.016Z,87.57
2023-06-16T03:03:49.868Z,87.77
2023-06-16T03:04:49.926Z,87.57
2023-06-16T03:05:49.858Z,87.16
2023-06-16T03:06:49.825Z,88.33
2023-06-16T03:07:49.822Z,88.49
2023-06-16T03:08:49.819Z,88.49
2023-06-16T03:09:49.834Z,88.70
2023-06-16T03:10:49.784Z,88.04
2023-06-16T03:11:49.801Z,86.61
2023-06-16T03:12:49.781Z,87.16
2023-06-16T03:13:49.736Z,87.98
2023-06-16T03:14:49.730Z,88.04
2023-06-16T03:15:49.731Z,87.94
2023-06-16T03:16:49.834Z,86.82
2023-06-16T03:17:49.729Z,88.18
2023-06-16T03:18:49.680Z,87.98
2023-06-16T03:19:49.680Z,87.32
2023-06-16T03:20:49.658Z,87.16
2023-06-16T03:21:49.649Z,87.47
2023-06-16T03:22:49.648Z,86.82
2023-06-16T03:23:49.642Z,87.77
2023-06-16T03:24:49.615Z,88.49
2023-06-16T03:25:49.609Z,88.29
2023-06-16T03:26:49.593Z,88.04
2023-06-16T03:27:49.591Z,87.84
2023-06-16T03:28:49.573Z,88.14
2023-06-16T03:29:49.555Z,88.35
2023-06-16T03:30:49.547Z,88.04
2023-06-16T03:31:49.534Z,87.79
2023-06-16T03:32:49.608Z,86.94
2023-06-16T03:33:49.513Z,86.22
2023-06-16T03:34:49.516Z,85.92
2023-06-16T03:35:49.492Z,85.71
2023-06-16T03:36:49.503Z,85.41
2023-06-16T03:37:49.475Z,85.16
2023-06-16T03:38:49.453Z,84.75
2023-06-16T03:39:49.443Z,84.45
2023-06-16T03:40:49.449Z,84.14
2023-06-16T03:41:49.428Z,84.04
2023-06-16T03:42:49.410Z,84.55
2023-06-16T03:43:49.398Z,84.45
2023-06-16T03:44:49.414Z,84.55
2023-06-16T03:45:49.452Z,83.90
2023-06-16T03:46:49.377Z,84.51
2023-06-16T03:47:49.454Z,84.20
2023-06-16T03:48:49.371Z,84.20
2023-06-16T03:49:49.350Z,84.00
2023-06-16T03:50:49.320Z,83.80
2023-06-16T03:51:49.308Z,83.59
2023-06-16T03:52:56.429Z,83.59
2023-06-16T03:53:49.299Z,83.09
2023-06-16T03:54:49.285Z,83.49
2023-06-16T03:55:49.269Z,82.98
2023-06-16T03:56:49.262Z,83.39
2023-06-16T03:57:49.239Z,84.00
2023-06-16T03:58:49.233Z,83.90
2023-06-16T03:59:49.238Z,84.34
2023-06-16T04:00:49.217Z,83.49
2023-06-16T04:01:49.351Z,84.34
2023-06-16T04:02:49.205Z,84.14
2023-06-16T04:03:49.239Z,84.55
2023-06-16T04:04:49.204Z,85.88
2023-06-16T04:05:49.158Z,86.94
2023-06-16T04:06:49.159Z,86.43
2023-06-16T04:07:49.125Z,86.94
2023-06-16T04:08:50.927Z,87.76
2023-06-16T04:09:49.133Z,87.55
2023-06-16T04:10:49.121Z,87.04
2023-06-16T04:11:49.095Z,87.24
2023-06-16T04:12:49.082Z,87.14
2023-06-16T04:13:49.069Z,86.43
2023-06-16T04:14:49.060Z,86.59
2023-06-16T04:15:49.046Z,86.69
2023-06-16T04:16:49.062Z,87.30
2023-06-16T04:17:49.079Z,87.82
2023-06-16T04:18:49.041Z,88.47
2023-06-16T04:19:49.000Z,88.26
2023-06-16T04:20:48.991Z,86.39
2023-06-16T04:21:48.979Z,85.47
2023-06-16T04:22:48.986Z,85.22
2023-06-16T04:23:48.975Z,85.33
2023-06-16T04:24:48.944Z,84.72
2023-06-16T04:25:48.932Z,84.58
2023-06-16T04:26:48.916Z,84.27
2023-06-16T04:27:48.912Z,84.47
2023-06-16T04:28:48.914Z,84.06
2023-06-16T04:29:48.887Z,83.21
2023-06-16T04:30:48.895Z,84.23
2023-06-16T04:31:48.902Z,83.51
2023-06-16T04:32:48.915Z,83.01
2023-06-16T04:33:48.859Z,83.21
2023-06-16T04:34:48.849Z,84.84
2023-06-16T04:35:48.855Z,84.12
2023-06-16T04:36:48.822Z,82.60
2023-06-16T04:37:48.800Z,81.95
2023-06-16T04:38:48.782Z,82.26
2023-06-16T04:39:48.870Z,81.13
2023-06-16T04:40:48.840Z,82.05
2023-06-16T04:41:48.832Z,82.35
2023-06-16T04:42:48.780Z,81.85
2023-06-16T04:43:48.809Z,80.93
2023-06-16T04:44:48.738Z,81.34
2023-06-16T04:45:48.836Z,81.24
2023-06-16T04:46:48.723Z,80.83
2023-06-16T04:47:48.737Z,80.73
2023-06-16T04:48:48.695Z,81.34
2023-06-16T04:49:48.683Z,81.44
2023-06-16T04:50:48.674Z,80.90
2023-06-16T04:51:48.645Z,81.30
2023-06-16T04:52:48.637Z,81.40
2023-06-16T04:53:48.629Z,81.20
2023-06-16T04:54:48.610Z,81.20
2023-06-16T04:55:48.602Z,81.10
2023-06-16T04:56:48.592Z,80.59
2023-06-16T04:57:48.580Z,80.69
2023-06-16T04:58:48.621Z,79.98
2023-06-16T04:59:48.561Z,80.29
2023-06-16T05:00:48.552Z,80.18
2023-06-16T05:01:48.547Z,81.20
2023-06-16T05:02:48.575Z,81.60
2023-06-16T05:03:48.601Z,80.38
2023-06-16T05:04:48.504Z,79.88
2023-06-16T05:05:48.498Z,79.43
2023-06-16T05:06:48.483Z,79.23
2023-06-16T05:07:48.471Z,78.92
2023-06-16T05:08:48.499Z,79.84
2023-06-16T05:09:48.484Z,79.63
2023-06-16T05:10:48.469Z,79.02
2023-06-16T05:11:48.438Z,78.72
2023-06-16T05:12:48.409Z,79.33
2023-06-16T05:13:48.409Z,79.84
2023-06-16T05:14:48.392Z,79.53
2023-06-16T05:15:48.374Z,80.24
2023-06-16T05:16:48.430Z,81.87
2023-06-16T05:17:48.471Z,81.26
2023-06-16T05:18:48.455Z,80.35
2023-06-16T05:19:48.337Z,79.94
2023-06-16T05:20:48.331Z,82.48
2023-06-16T05:21:48.306Z,82.48
2023-06-16T05:22:48.308Z,81.37
2023-06-16T05:23:48.331Z,81.67
2023-06-16T05:24:48.282Z,80.76
2023-06-16T05:25:48.272Z,81.06
2023-06-16T05:26:48.266Z,82.07
2023-06-16T05:27:48.253Z,81.46
2023-06-16T05:28:48.252Z,81.06
2023-06-16T05:29:48.232Z,80.96
2023-06-16T05:30:48.274Z,80.65
2023-06-16T05:31:48.213Z,81.26
2023-06-16T05:32:48.248Z,81.43
2023-06-16T05:33:48.184Z,80.41
2023-06-16T05:34:48.182Z,80.51
2023-06-16T05:35:48.176Z,80.11
2023-06-16T05:36:48.149Z,80.31
2023-06-16T05:37:48.149Z,79.39
2023-06-16T05:38:48.146Z,79.66
2023-06-16T05:39:48.162Z,80.07
2023-06-16T05:40:48.128Z,79.36
2023-06-16T05:41:48.095Z,80.27
2023-06-16T05:42:48.090Z,79.56
2023-06-16T05:43:48.076Z,78.81
2023-06-16T05:44:48.077Z,79.02
2023-06-16T05:45:48.040Z,77.39
2023-06-16T05:46:48.041Z,76.58
2023-06-16T05:47:48.087Z,76.78
2023-06-16T05:48:48.041Z,78.06
2023-06-16T05:49:48.023Z,78.06
2023-06-16T05:50:47.998Z,76.44
2023-06-16T05:51:48.005Z,75.63
2023-06-16T05:52:47.978Z,75.73
2023-06-16T05:53:47.961Z,75.63
2023-06-16T05:54:47.957Z,77.25
2023-06-16T05:55:47.931Z,77.86
2023-06-16T05:56:47.929Z,78.27
2023-06-16T05:57:47.910Z,78.47
2023-06-16T05:58:47.921Z,79.18
2023-06-16T05:59:47.906Z,78.37
2023-06-16T06:00:47.889Z,78.67
2023-06-16T06:01:47.876Z,78.88
2023-06-16T06:02:47.965Z,77.97
2023-06-16T06:03:48.093Z,78.13
2023-06-16T06:04:47.874Z,77.52
2023-06-16T06:05:47.848Z,77.01
2023-06-16T06:06:47.834Z,77.62
2023-06-16T06:07:47.902Z,79.25
2023-06-16T06:08:47.857Z,77.52
2023-06-16T06:09:47.788Z,78.13
2023-06-16T06:10:47.829Z,77.52
2023-06-16T06:11:47.799Z,78.74
2023-06-16T06:12:47.823Z,77.52
2023-06-16T06:13:47.732Z,77.01
2023-06-16T06:14:47.740Z,77.08
2023-06-16T06:15:47.771Z,75.86
2023-06-16T06:16:48.464Z,76.27
2023-06-16T06:17:47.737Z,77.38
2023-06-16T06:18:47.677Z,76.06
2023-06-16T06:19:47.665Z,77.69
2023-06-16T06:20:47.662Z,78.19
2023-06-16T06:21:47.649Z,77.48
2023-06-16T06:22:48.930Z,77.69
2023-06-16T06:23:47.641Z,77.79
2023-06-16T06:24:47.622Z,77.38
2023-06-16T06:25:47.615Z,78.19
2023-06-16T06:26:47.616Z,77.59
2023-06-16T06:27:47.622Z,78.50
2023-06-16T06:28:47.577Z,77.69
2023-06-16T06:29:47.576Z,76.98
2023-06-16T06:30:47.567Z,76.57
2023-06-16T06:31:47.540Z,76.37
2023-06-16T06:32:47.532Z,75.96
2023-06-16T06:33:47.536Z,77.18
2023-06-16T06:34:47.551Z,76.23
2023-06-16T06:35:47.507Z,75.52
2023-06-16T06:36:47.482Z,75.12
2023-06-16T06:37:47.489Z,75.12
2023-06-16T06:38:47.466Z,74.61
2023-06-16T06:39:47.466Z,75.22
2023-06-16T06:40:47.498Z,75.22
2023-06-16T06:41:47.436Z,77.04
2023-06-16T06:42:47.422Z,77.04
2023-06-16T06:43:47.403Z,77.14
2023-06-16T06:44:47.413Z,75.73
2023-06-16T06:45:47.383Z,73.90
2023-06-16T06:46:47.499Z,73.19
2023-06-16T06:47:47.443Z,73.09
2023-06-16T06:48:47.423Z,73.90
2023-06-16T06:49:47.427Z,75.32
2023-06-16T06:50:47.368Z,74.77
2023-06-16T06:51:47.321Z,77.11
2023-06-16T06:52:47.320Z,76.09
2023-06-16T06:53:47.337Z,74.88
2023-06-16T06:54:47.295Z,75.49
2023-06-16T06:55:47.265Z,74.27
2023-06-16T06:56:47.277Z,73.63
2023-06-16T06:57:47.252Z,74.54
2023-06-16T06:58:47.257Z,74.64
2023-06-16T06:59:47.252Z,74.95
2023-06-16T07:00:47.276Z,75.15
2023-06-16T07:01:47.316Z,75.25
2023-06-16T07:02:47.359Z,75.65
2023-06-16T07:03:47.272Z,76.03
2023-06-16T07:04:47.200Z,74.10
2023-06-16T07:05:47.176Z,73.09
2023-06-16T07:06:47.152Z,72.28
2023-06-16T07:07:47.140Z,72.34
2023-06-16T07:08:47.138Z,72.95
2023-06-16T07:09:47.121Z,74.37
2023-06-16T07:10:47.141Z,73.83
2023-06-16T07:11:47.117Z,74.54
2023-06-16T07:12:47.098Z,72.58
2023-06-16T07:13:47.084Z,73.79
2023-06-16T07:14:47.067Z,72.17
2023-06-16T07:15:47.141Z,72.38
2023-06-16T07:16:47.070Z,71.33
2023-06-16T07:17:47.035Z,71.84
2023-06-16T07:18:47.051Z,72.34
2023-06-16T07:19:47.009Z,72.14
2023-06-16T07:20:47.005Z,72.34
2023-06-16T07:21:46.978Z,71.23
2023-06-16T07:22:47.055Z,70.32
2023-06-16T07:23:47.005Z,72.44
2023-06-16T07:24:46.956Z,70.62
2023-06-16T07:25:46.961Z,70.42
2023-06-16T07:26:46.977Z,72.04
2023-06-16T07:27:46.922Z,72.85
2023-06-16T07:28:46.934Z,70.73
2023-06-16T07:29:46.921Z,71.53
2023-06-16T07:30:46.894Z,71.73
2023-06-16T07:31:46.886Z,71.53
2023-06-16T07:32:46.940Z,72.04
2023-06-16T07:33:46.844Z,71.64
2023-06-16T07:34:46.848Z,72.75
2023-06-16T07:35:46.852Z,72.44
2023-06-16T07:36:46.841Z,73.25
2023-06-16T07:37:46.803Z,70.62
2023-06-16T07:38:46.797Z,70.53
2023-06-16T07:39:46.820Z,71.64
2023-06-16T07:40:46.800Z,74.37
2023-06-16T07:41:46.785Z,71.80
2023-06-16T07:42:46.946Z,72.71
2023-06-16T07:43:46.747Z,73.32
2023-06-16T07:44:46.754Z,71.40
2023-06-16T07:45:46.761Z,70.59
2023-06-16T07:46:46.808Z,71.91
2023-06-16T07:47:46.821Z,72.81
2023-06-16T07:48:46.707Z,71.70
2023-06-16T07:49:46.743Z,72.31
2023-06-16T07:50:46.705Z,72.00
2023-06-16T07:51:46.662Z,70.79
2023-06-16T07:52:46.645Z,70.39
2023-06-16T07:53:46.670Z,71.91
2023-06-16T07:54:46.616Z,70.86
2023-06-16T07:55:46.618Z,71.77
2023-06-16T07:56:46.596Z,71.87
2023-06-16T07:57:46.588Z,72.78
2023-06-16T07:58:46.591Z,71.97
2023-06-16T07:59:46.595Z,71.13
2023-06-16T08:00:46.564Z,71.33
2023-06-16T08:01:46.676Z,70.93
2023-06-16T08:02:46.668Z,70.32
2023-06-16T08:03:46.699Z,70.62
2023-06-16T08:04:46.627Z,70.42
2023-06-16T08:05:46.524Z,69.11
2023-06-16T08:06:46.489Z,70.12
2023-06-16T08:07:46.477Z,70.12
2023-06-16T08:08:46.483Z,71.53
2023-06-16T08:09:46.453Z,70.22
2023-06-16T08:10:46.511Z,70.93
2023-06-16T08:11:46.435Z,73.82
2023-06-16T08:12:46.488Z,71.80
2023-06-16T08:13:46.403Z,70.46
2023-06-16T08:14:46.387Z,69.05
2023-06-16T08:15:46.430Z,69.85
2023-06-16T08:16:46.382Z,69.65
2023-06-16T08:17:46.470Z,69.82
2023-06-16T08:18:46.355Z,69.32
2023-06-16T08:19:46.342Z,68.51
2023-06-16T08:20:46.324Z,68.48
2023-06-16T08:21:46.336Z,68.48
2023-06-16T08:22:46.323Z,68.24
2023-06-16T08:23:46.353Z,67.94
2023-06-16T08:24:46.271Z,65.73
2023-06-16T08:25:46.300Z,66.50
2023-06-16T08:26:46.283Z,65.30
2023-06-16T08:27:46.245Z,66.50
2023-06-16T08:28:46.280Z,65.97
2023-06-16T08:29:46.238Z,65.06
2023-06-16T08:30:46.226Z,65.26
2023-06-16T08:31:46.202Z,64.56
2023-06-16T08:32:46.213Z,64.36
2023-06-16T08:33:46.198Z,65.44
2023-06-16T08:34:46.177Z,63.12
2023-06-16T08:35:46.167Z,62.52
2023-06-16T08:36:46.164Z,65.13
2023-06-16T08:37:46.141Z,63.79
2023-06-16T08:38:46.153Z,62.89
2023-06-16T08:39:46.108Z,64.87
2023-06-16T08:40:46.124Z,62.66
2023-06-16T08:41:46.097Z,61.55
2023-06-16T08:42:46.072Z,58.14
2023-06-16T08:43:46.105Z,58.64
2023-06-16T08:44:46.099Z,59.45
2023-06-16T08:45:46.050Z,59.14
2023-06-16T08:46:46.130Z,63.46
2023-06-16T08:47:46.068Z,61.83
2023-06-16T08:48:46.007Z,62.33
2023-06-16T08:49:46.004Z,61.70
2023-06-16T08:50:46.008Z,58.29
2023-06-16T08:51:46.000Z,58.69
2023-06-16T08:52:46.251Z,58.69
2023-06-16T08:53:45.969Z,57.89
2023-06-16T08:54:45.964Z,58.89
2023-06-16T08:55:45.943Z,59.39
2023-06-16T08:56:45.922Z,58.79
2023-06-16T08:57:45.923Z,58.26
2023-06-16T08:58:45.915Z,59.26
2023-06-16T08:59:45.895Z,59.94
2023-06-16T09:00:45.878Z,58.33
2023-06-16T09:01:45.893Z,57.83
2023-06-16T09:02:45.937Z,55.73
2023-06-16T09:03:45.947Z,56.40
2023-06-16T09:04:45.858Z,55.02
2023-06-16T09:05:45.838Z,57.15
2023-06-16T09:06:45.822Z,60.06
2023-06-16T09:07:45.811Z,59.23
2023-06-16T09:08:45.816Z,57.83
2023-06-16T09:09:45.799Z,58.13
2023-06-16T09:10:45.774Z,59.53
2023-06-16T09:11:45.813Z,57.43
2023-06-16T09:12:45.751Z,57.93
2023-06-16T09:13:45.736Z,59.23
2023-06-16T09:14:45.744Z,56.52
2023-06-16T09:15:45.733Z,57.86
2023-06-16T09:16:45.770Z,58.36
2023-06-16T09:17:45.772Z,61.27
2023-06-16T09:18:45.689Z,60.86
2023-06-16T09:19:45.678Z,59.36
2023-06-16T09:20:45.681Z,60.06
2023-06-16T09:21:48.079Z,61.17
2023-06-16T09:22:45.638Z,59.09
2023-06-16T09:23:45.692Z,61.00
2023-06-16T09:24:45.609Z,63.20
2023-06-16T09:25:45.603Z,61.80
2023-06-16T09:26:45.634Z,61.80
2023-06-16T09:27:45.613Z,59.69
2023-06-16T09:28:45.583Z,61.00
2023-06-16T09:29:45.560Z,63.50
2023-06-16T09:30:47.260Z,60.80
2023-06-16T09:31:45.545Z,60.29
2023-06-16T09:32:45.566Z,60.29
2023-06-16T09:33:45.527Z,59.19
2023-06-16T09:34:45.512Z,58.18
2023-06-16T09:35:45.529Z,59.49
2023-06-16T09:36:45.484Z,60.19
2023-06-16T09:37:45.470Z,61.19
2023-06-16T09:38:45.457Z,61.50
2023-06-16T09:39:45.460Z,62.20
2023-06-16T09:40:45.453Z,60.60
2023-06-16T09:41:45.446Z,58.99
2023-06-16T09:42:45.411Z,57.96
2023-06-16T09:43:45.415Z,57.35
2023-06-16T09:44:45.426Z,57.96
2023-06-16T09:45:45.424Z,57.76
2023-06-16T09:46:45.372Z,56.85
2023-06-16T09:47:45.447Z,57.35
2023-06-16T09:48:45.379Z,58.13
2023-06-16T09:49:45.356Z,55.93
2023-06-16T09:50:45.322Z,55.43
2023-06-16T09:51:45.327Z,56.00
2023-06-16T09:52:45.358Z,55.10
2023-06-16T09:53:45.306Z,53.39
2023-06-16T09:54:45.281Z,51.19
2023-06-16T09:55:45.288Z,53.19
2023-06-16T09:56:45.258Z,51.59
2023-06-16T09:57:45.301Z,53.00
2023-06-16T09:58:45.248Z,51.69
2023-06-16T09:59:45.242Z,53.50
2023-06-16T10:00:45.232Z,53.47
2023-06-16T10:01:45.245Z,53.47
2023-06-16T10:02:45.278Z,52.24
2023-06-16T10:03:47.158Z,52.84
2023-06-16T10:04:47.036Z,51.74
2023-06-16T10:05:45.178Z,52.04
2023-06-16T10:06:45.148Z,51.54
2023-06-16T10:07:45.153Z,55.22
2023-06-16T10:08:45.156Z,55.12
2023-06-16T10:09:58.730Z,53.89
2023-06-16T10:10:45.125Z,53.47
2023-06-16T10:11:45.116Z,54.94
2023-06-16T10:12:45.180Z,54.71
2023-06-16T10:13:45.079Z,50.24
2023-06-16T10:14:45.087Z,52.97
2023-06-16T10:15:45.062Z,55.74
2023-06-16T10:16:45.092Z,53.64
2023-06-16T10:17:45.188Z,51.04
2023-06-16T10:18:45.156Z,50.74
2023-06-16T10:19:45.010Z,54.54
2023-06-16T10:20:44.999Z,52.64
2023-06-16T10:21:44.987Z,54.84
2023-06-16T10:22:44.990Z,52.94
2023-06-16T10:23:45.001Z,53.24
2023-06-16T10:24:45.003Z,53.34
2023-06-16T10:25:44.958Z,51.57
2023-06-16T10:26:44.921Z,52.87
2023-06-16T10:27:44.942Z,51.97
2023-06-16T10:28:44.912Z,52.77
2023-06-16T10:29:44.951Z,54.44
2023-06-16T10:30:45.470Z,53.34
2023-06-16T10:31:44.909Z,52.04
2023-06-16T10:32:44.905Z,52.44
2023-06-16T10:33:44.854Z,53.74
2023-06-16T10:34:44.872Z,54.34
2023-06-16T10:35:44.858Z,52.77
2023-06-16T10:36:44.836Z,53.07
2023-06-16T10:37:44.810Z,53.37
2023-06-16T10:38:44.788Z,55.04
2023-06-16T10:39:44.916Z,54.24
2023-06-16T10:40:44.784Z,54.84
2023-06-16T10:41:44.783Z,52.94
2023-06-16T10:42:44.759Z,53.04
2023-06-16T10:43:44.774Z,53.44
2023-06-16T10:44:44.728Z,57.93
2023-06-16T10:45:44.733Z,54.34
2023-06-16T10:46:44.906Z,52.57
2023-06-16T10:47:44.941Z,53.47
2023-06-16T10:48:44.677Z,54.67
2023-06-16T10:49:44.680Z,55.57
2023-06-16T10:50:44.668Z,55.36
2023-06-16T10:51:44.672Z,52.97
2023-06-16T10:52:44.674Z,56.34
2023-06-16T10:53:44.629Z,53.84
2023-06-16T10:54:44.616Z,54.84
2023-06-16T10:55:44.619Z,53.74
2023-06-16T10:56:44.599Z,55.84
2023-06-16T10:57:44.607Z,53.84
2023-06-16T10:58:44.591Z,55.64
2023-06-16T10:59:44.591Z,54.41
2023-06-16T11:00:44.541Z,53.04
2023-06-16T11:01:44.573Z,54.24
2023-06-16T11:02:44.684Z,55.34
2023-06-16T11:03:44.644Z,53.64
2023-06-16T11:04:44.525Z,55.04
2023-06-16T11:05:44.500Z,53.24
2023-06-16T11:06:50.038Z,53.74
2023-06-16T11:07:44.504Z,55.17
2023-06-16T11:08:44.457Z,54.77
2023-06-16T11:09:44.475Z,54.27
2023-06-16T11:10:44.470Z,53.97
2023-06-16T11:11:44.442Z,54.17
2023-06-16T11:12:44.489Z,53.67
2023-06-16T11:13:44.414Z,53.39
2023-06-16T11:14:44.444Z,53.67
2023-06-16T11:15:44.407Z,55.87
2023-06-16T11:16:44.400Z,55.07
2023-06-16T11:17:44.431Z,57.21
2023-06-16T11:18:44.350Z,53.42
2023-06-16T11:19:44.368Z,52.99
2023-06-16T11:20:44.324Z,51.50
2023-06-16T11:21:44.335Z,53.99
2023-06-16T11:22:44.487Z,53.36
2023-06-16T11:23:44.297Z,51.27
2023-06-16T11:24:44.280Z,52.17
2023-06-16T11:25:44.292Z,52.74
2023-06-16T11:26:44.260Z,51.65
2023-06-16T11:27:44.299Z,53.14
2023-06-16T11:28:44.264Z,54.38
2023-06-16T11:29:44.227Z,52.39
2023-06-16T11:30:44.214Z,50.80
2023-06-16T11:31:44.309Z,50.60
2023-06-16T11:32:44.258Z,51.70
2023-06-16T11:33:44.192Z,51.50
2023-06-16T11:34:44.177Z,53.86
2023-06-16T11:35:44.166Z,50.38
2023-06-16T11:36:44.153Z,51.65
2023-06-16T11:37:44.148Z,48.46
2023-06-16T11:38:44.134Z,50.27
2023-06-16T11:39:44.123Z,49.18
2023-06-16T11:40:44.098Z,49.98
2023-06-16T11:41:53.888Z,50.27
2023-06-16T11:42:44.101Z,48.58
2023-06-16T11:43:44.097Z,46.79
2023-06-16T11:44:44.071Z,46.99
2023-06-16T11:45:44.047Z,45.30
2023-06-16T11:46:44.102Z,48.19
2023-06-16T11:47:44.078Z,45.30
2023-06-16T11:48:44.045Z,46.81
2023-06-16T11:49:44.039Z,44.92
2023-06-16T11:50:43.995Z,45.64
2023-06-16T11:51:44.025Z,47.16
2023-06-16T11:52:43.985Z,47.06
2023-06-16T11:53:43.969Z,47.45
2023-06-16T11:54:43.980Z,45.59
2023-06-16T11:55:43.942Z,45.29
2023-06-16T11:56:43.950Z,47.38
2023-06-16T11:57:43.968Z,48.05
2023-06-16T11:58:43.943Z,48.85
2023-06-16T11:59:43.927Z,45.84
2023-06-16T12:00:43.944Z,47.53
2023-06-16T12:01:43.968Z,48.73
2023-06-16T12:02:43.976Z,48.43
2023-06-16T12:03:55.865Z,49.40
2023-06-16T12:04:43.906Z,46.61
2023-06-16T12:05:43.867Z,45.54
2023-06-16T12:06:43.816Z,46.86
2023-06-16T12:07:43.862Z,49.15
2023-06-16T12:08:43.808Z,49.25
2023-06-16T12:09:43.791Z,50.23
2023-06-16T12:10:43.802Z,51.92
2023-06-16T12:11:43.778Z,47.74
2023-06-16T12:12:43.843Z,49.73
2023-06-16T12:13:43.776Z,48.03
2023-06-16T12:14:43.745Z,48.13
2023-06-16T12:15:43.753Z,46.66
2023-06-16T12:16:43.745Z,48.65
2023-06-16T12:17:43.898Z,47.58
2023-06-16T12:18:43.740Z,46.78
2023-06-16T12:19:43.835Z,47.10
2023-06-16T12:20:43.753Z,47.80
2023-06-16T12:21:43.688Z,48.40
2023-06-16T12:22:43.700Z,48.10
2023-06-16T12:23:43.657Z,49.40
2023-06-16T12:24:43.678Z,51.37
2023-06-16T12:25:43.623Z,51.77
2023-06-16T12:26:43.610Z,51.37
2023-06-16T12:27:43.653Z,51.57
2023-06-16T12:28:43.626Z,50.97
2023-06-16T12:29:43.680Z,51.47
2023-06-16T12:30:43.578Z,49.48
2023-06-16T12:31:43.609Z,51.75
2023-06-16T12:32:43.644Z,51.35
2023-06-16T12:33:43.554Z,50.05
2023-06-16T12:34:43.554Z,51.05
2023-06-16T12:35:43.531Z,50.15
2023-06-16T12:36:43.569Z,50.95
2023-06-16T12:37:43.551Z,48.95
2023-06-16T12:38:44.373Z,52.14
2023-06-16T12:39:43.462Z,50.52
2023-06-16T12:40:43.497Z,48.25
2023-06-16T12:41:43.463Z,52.04
2023-06-16T12:42:43.493Z,50.74
2023-06-16T12:43:43.451Z,50.45
2023-06-16T12:44:43.425Z,51.84
2023-06-16T12:45:43.411Z,52.34
2023-06-16T12:46:43.434Z,51.15
2023-06-16T12:47:43.427Z,51.95
2023-06-16T12:48:43.402Z,50.85
2023-06-16T12:49:43.381Z,52.64
2023-06-16T12:50:43.356Z,50.74
2023-06-16T12:51:43.342Z,50.45
2023-06-16T12:52:43.367Z,50.35